createdAt,value
2023-04-18T00:01:19.521Z,89.30
2023-04-18T00:03:47.285Z,89.20
2023-04-18T00:06:14.853Z,89.30
2023-04-18T00:08:42.207Z,88.90
2023-04-18T00:11:10.263Z,89.00
2023-04-18T00:13:39.570Z,88.80
2023-04-18T00:16:09.052Z,88.90
2023-04-18T00:18:37.219Z,88.70
2023-04-18T00:21:06.038Z,88.60
2023-04-18T00:23:35.609Z,89.00
2023-04-18T00:26:03.089Z,89.40
2023-04-18T00:28:30.548Z,89.30
2023-04-18T00:30:57.913Z,89.10
2023-04-18T00:33:25.279Z,89.20
2023-04-18T00:35:53.766Z,89.50
2023-04-18T00:38:21.190Z,89.30
2023-04-18T00:40:48.936Z,88.70
2023-04-18T00:43:17.275Z,89.50
2023-04-18T00:45:45.113Z,90.00
2023-04-18T00:48:12.645Z,89.70
2023-04-18T00:50:41.749Z,89.50
2023-04-18T00:53:11.809Z,89.50
2023-04-18T00:55:39.287Z,89.40
2023-04-18T00:58:06.731Z,89.20
2023-04-18T01:00:37.543Z,89.50
2023-04-18T01:03:06.856Z,89.40
2023-04-18T01:05:36.435Z,89.50
2023-04-18T01:08:04.818Z,89.50
2023-04-18T01:10:37.277Z,89.50
2023-04-18T01:13:16.132Z,89.60
2023-04-18T01:15:46.150Z,89.40
2023-04-18T01:18:19.293Z,89.30
2023-04-18T01:20:52.049Z,90.40
2023-04-18T01:23:21.519Z,91.70
2023-04-18T01:25:52.734Z,92.20
2023-04-18T01:28:24.712Z,91.90
2023-04-18T01:30:52.666Z,91.90
2023-04-18T01:33:20.224Z,91.20
2023-04-18T01:35:47.544Z,90.90
2023-04-18T01:38:14.947Z,90.50
2023-04-18T01:40:42.315Z,90.70
2023-04-18T01:43:09.958Z,90.70
2023-04-18T01:45:41.435Z,90.70
2023-04-18T01:48:09.427Z,90.50
2023-04-18T01:50:37.135Z,90.40
2023-04-18T01:53:05.023Z,89.80
2023-04-18T01:55:32.787Z,89.60
2023-04-18T01:58:00.780Z,89.40
2023-04-18T02:00:31.784Z,89.50
2023-04-18T02:03:00.072Z,89.80
2023-04-18T02:05:27.646Z,89.60
2023-04-18T02:07:55.606Z,89.40
2023-04-18T02:10:23.027Z,89.60
2023-04-18T02:12:50.730Z,89.80
2023-04-18T02:15:23.229Z,89.50
2023-04-18T02:17:52.232Z,89.30
2023-04-18T02:20:19.842Z,89.40
2023-04-18T02:22:48.237Z,90.00
2023-04-18T02:25:15.718Z,89.80
2023-04-18T02:27:43.163Z,89.60
2023-04-18T02:30:11.163Z,89.60
2023-04-18T02:32:38.697Z,89.60
2023-04-18T02:35:06.306Z,89.20
2023-04-18T02:37:34.059Z,89.40
2023-04-18T02:40:01.484Z,89.50
2023-04-18T02:42:32.553Z,89.30
2023-04-18T02:45:01.622Z,88.90
2023-04-18T02:47:30.385Z,89.00
2023-04-18T02:49:59.325Z,89.30
2023-04-18T02:52:29.057Z,89.30
2023-04-18T02:54:56.830Z,89.00
2023-04-18T02:57:27.788Z,88.30
2023-04-18T03:00:07.333Z,88.40
2023-04-18T03:02:54.763Z,89.20
2023-04-18T03:05:34.137Z,89.10
2023-04-18T03:08:04.442Z,89.20
2023-04-18T03:10:31.864Z,89.40
2023-04-18T03:13:05.649Z,89.70
2023-04-18T03:15:37.024Z,89.80
2023-04-18T03:18:06.700Z,90.00
2023-04-18T03:20:37.777Z,89.90
2023-04-18T03:23:07.622Z,89.90
2023-04-18T03:25:35.944Z,89.80
2023-04-18T03:28:04.133Z,89.90
2023-04-18T03:30:36.405Z,89.50
2023-04-18T03:33:05.940Z,89.30
2023-04-18T03:35:33.825Z,89.40
2023-04-18T03:38:01.315Z,90.10
2023-04-18T03:40:31.601Z,90.20
2023-04-18T03:43:06.040Z,90.30
2023-04-18T03:45:35.900Z,90.20
2023-04-18T03:48:05.198Z,89.80
2023-04-18T03:50:36.373Z,89.80
2023-04-18T03:53:08.756Z,89.60
2023-04-18T03:55:37.603Z,89.50
2023-04-18T03:58:05.105Z,89.40
2023-04-18T04:00:35.152Z,89.30
2023-04-18T04:03:08.325Z,89.70
2023-04-18T04:05:36.030Z,89.50
2023-04-18T04:08:04.442Z,89.40
2023-04-18T04:10:32.002Z,89.70
2023-04-18T04:13:01.232Z,89.40
2023-04-18T04:15:33.995Z,89.90
2023-04-18T04:18:06.896Z,89.60
2023-04-18T04:20:37.355Z,89.80
2023-04-18T04:23:13.559Z,89.90
2023-04-18T04:25:45.806Z,90.00
2023-04-18T04:28:23.992Z,90.40
2023-04-18T04:30:56.951Z,90.90
2023-04-18T04:33:28.877Z,90.80
2023-04-18T04:36:01.538Z,90.60
2023-04-18T04:38:32.051Z,90.60
2023-04-18T04:41:00.162Z,90.40
2023-04-18T04:43:29.121Z,90.30
2023-04-18T04:45:57.892Z,90.30
2023-04-18T04:48:29.298Z,90.40
2023-04-18T04:51:02.018Z,90.30
2023-04-18T04:53:33.276Z,90.70
2023-04-18T04:56:05.423Z,90.60
2023-04-18T04:58:35.973Z,90.50
2023-04-18T05:01:09.656Z,90.40
2023-04-18T05:03:38.597Z,90.10
2023-04-18T05:06:07.026Z,89.90
2023-04-18T05:08:34.930Z,90.20
2023-04-18T05:11:02.901Z,90.30
2023-04-18T05:13:30.453Z,90.00
2023-04-18T05:16:00.271Z,90.50
2023-04-18T05:18:27.749Z,90.20
2023-04-18T05:20:56.002Z,89.80
2023-04-18T05:23:24.262Z,89.90
2023-04-18T05:25:53.024Z,90.00
2023-04-18T05:28:20.493Z,89.80
2023-04-18T05:30:48.653Z,89.70
2023-04-18T05:33:16.156Z,90.00
2023-04-18T05:35:45.097Z,90.40
2023-04-18T05:38:12.560Z,90.90
2023-04-18T05:40:40.090Z,90.80
2023-04-18T05:43:07.364Z,90.30
2023-04-18T05:45:38.165Z,90.70
2023-04-18T05:48:06.331Z,90.40
2023-04-18T05:50:33.678Z,90.20
2023-04-18T05:53:01.665Z,90.30
2023-04-18T05:55:29.379Z,90.50
2023-04-18T05:57:56.704Z,90.20
2023-04-18T06:00:29.985Z,89.90
2023-04-18T06:02:57.942Z,89.70
2023-04-18T06:05:26.343Z,89.90
2023-04-18T06:07:53.900Z,89.80
2023-04-18T06:10:21.684Z,90.40
2023-04-18T06:12:49.064Z,89.70
2023-04-18T06:15:16.719Z,89.40
2023-04-18T06:17:45.642Z,89.00
2023-04-18T06:20:13.263Z,88.50
2023-04-18T06:22:40.676Z,88.00
2023-04-18T06:25:10.263Z,87.60
2023-04-18T06:27:40.378Z,88.00
2023-04-18T06:30:10.831Z,87.90
2023-04-18T06:32:38.337Z,87.80
2023-04-18T06:35:09.365Z,87.40
2023-04-18T06:37:36.932Z,86.20
2023-04-18T06:40:07.041Z,85.20
2023-04-18T06:42:35.972Z,85.00
2023-04-18T06:45:04.989Z,85.70
2023-04-18T06:47:33.139Z,86.00
2023-04-18T06:50:00.525Z,86.20
2023-04-18T06:52:27.821Z,86.00
2023-04-18T06:54:55.137Z,85.90
2023-04-18T06:57:22.836Z,85.70
2023-04-18T06:59:50.141Z,85.40
2023-04-18T07:02:17.510Z,84.70
2023-04-18T07:04:46.085Z,85.20
2023-04-18T07:07:13.448Z,85.00
2023-04-18T07:09:42.405Z,84.40
2023-04-18T07:12:09.796Z,84.20
2023-04-18T07:14:39.473Z,84.60
2023-04-18T07:17:07.731Z,84.10
2023-04-18T07:19:35.306Z,82.80
2023-04-18T07:22:02.660Z,81.50
2023-04-18T07:24:30.448Z,80.10
2023-04-18T07:26:57.961Z,80.10
2023-04-18T07:29:25.666Z,79.90
2023-04-18T07:31:52.946Z,80.50
2023-04-18T07:34:22.494Z,79.60
2023-04-18T07:36:50.008Z,79.00
2023-04-18T07:39:17.383Z,79.20
2023-04-18T07:41:45.215Z,78.80
2023-04-18T07:44:12.838Z,76.90
2023-04-18T07:46:40.578Z,76.60
2023-04-18T07:49:08.095Z,75.90
2023-04-18T07:51:35.896Z,75.60
2023-04-18T07:57:46.431Z,76.50
2023-04-18T08:00:15.614Z,77.70
2023-04-18T08:02:43.347Z,76.90
2023-04-18T08:05:12.229Z,76.70
2023-04-18T08:07:39.666Z,76.50
2023-04-18T08:10:08.721Z,76.50
2023-04-18T08:12:37.033Z,77.00
2023-04-18T08:15:09.781Z,77.20
2023-04-18T08:17:39.275Z,76.70
2023-04-18T08:20:08.635Z,77.10
2023-04-18T08:22:44.042Z,77.60
2023-04-18T08:25:18.715Z,77.20
2023-04-18T08:27:46.384Z,77.50
2023-04-18T08:30:14.862Z,77.10
2023-04-18T08:32:43.555Z,76.70
2023-04-18T08:35:10.945Z,76.40
2023-04-18T08:37:38.442Z,77.30
2023-04-18T08:40:08.610Z,77.00
2023-04-18T08:42:38.438Z,77.00
2023-04-18T08:45:09.463Z,77.20
2023-04-18T08:47:36.909Z,77.20
2023-04-18T08:50:06.670Z,77.80
2023-04-18T08:52:37.841Z,77.50
2023-04-18T08:55:07.505Z,77.20
2023-04-18T08:57:36.583Z,76.70
2023-04-18T09:00:11.095Z,76.70
2023-04-18T09:02:47.163Z,77.50
2023-04-18T09:05:16.975Z,77.20
2023-04-18T09:07:45.033Z,77.20
2023-04-18T09:10:14.754Z,77.70
2023-04-18T09:12:50.616Z,76.80
2023-04-18T09:15:28.772Z,76.90
2023-04-18T09:17:59.460Z,76.80
2023-04-18T09:20:30.930Z,76.80
2023-04-18T09:23:00.909Z,77.60
2023-04-18T09:25:39.815Z,78.40
2023-04-18T09:28:30.235Z,78.00
2023-04-18T09:31:00.331Z,78.80
2023-04-18T09:33:34.568Z,78.70
2023-04-18T09:36:29.291Z,78.30
2023-04-18T09:38:57.984Z,78.30
2023-04-18T09:41:25.483Z,78.70
2023-04-18T09:44:10.809Z,79.00
2023-04-18T09:46:39.941Z,78.30
2023-04-18T09:49:10.866Z,78.10
2023-04-18T09:51:40.331Z,78.90
2023-04-18T09:54:11.180Z,78.50
2023-04-18T09:56:41.547Z,79.70
2023-04-18T09:59:10.663Z,77.50
2023-04-18T10:01:42.987Z,74.40
2023-04-18T10:04:13.343Z,72.80
2023-04-18T10:06:43.534Z,73.60
2023-04-18T10:09:11.146Z,72.70
2023-04-18T10:11:39.382Z,72.80
2023-04-18T10:14:14.082Z,72.20
2023-04-18T10:16:45.820Z,71.60
2023-04-18T10:19:27.480Z,73.90
2023-04-18T10:21:56.359Z,73.80
2023-04-18T10:24:58.974Z,74.20
2023-04-18T10:27:57.811Z,74.10
2023-04-18T10:30:56.667Z,73.60
2023-04-18T10:33:32.198Z,74.00
2023-04-18T10:36:16.287Z,73.80
2023-04-18T10:38:52.089Z,72.60
2023-04-18T10:41:26.784Z,73.40
2023-04-18T10:44:12.071Z,73.70
2023-04-18T10:46:41.751Z,75.40
2023-04-18T10:49:41.166Z,75.70
2023-04-18T10:52:08.933Z,75.70
2023-04-18T10:54:51.190Z,75.90
2023-04-18T10:57:18.580Z,76.50
2023-04-18T10:59:50.400Z,76.10
2023-04-18T11:02:30.556Z,77.60
2023-04-18T11:05:05.783Z,78.70
2023-04-18T11:07:49.140Z,79.00
2023-04-18T11:10:21.659Z,79.60
2023-04-18T11:13:07.805Z,80.60
2023-04-18T11:15:41.865Z,81.40
2023-04-18T11:18:10.185Z,80.50
2023-04-18T11:20:41.157Z,81.20
2023-04-18T11:23:20.787Z,80.60
2023-04-18T11:25:54.620Z,79.90
2023-04-18T11:28:25.024Z,79.70
2023-04-18T11:30:52.573Z,79.00
2023-04-18T11:33:20.339Z,78.00
2023-04-18T11:35:47.774Z,77.30
2023-04-18T11:38:16.374Z,77.00
2023-04-18T11:40:51.597Z,76.40
2023-04-18T11:43:24.707Z,75.60
2023-04-18T11:45:57.099Z,75.20
2023-04-18T11:48:35.108Z,74.50
2023-04-18T11:51:02.506Z,74.50
2023-04-18T11:53:37.480Z,75.30
2023-04-18T11:56:06.542Z,75.00
2023-04-18T11:58:35.340Z,75.10
2023-04-18T12:01:23.652Z,75.40
2023-04-18T12:04:09.377Z,76.00
2023-04-18T12:06:52.151Z,76.70
2023-04-18T12:09:24.988Z,76.90
2023-04-18T12:12:03.067Z,77.90
2023-04-18T12:14:31.862Z,78.00
2023-04-18T12:16:59.697Z,78.60
2023-04-18T12:19:28.508Z,79.20
2023-04-18T12:22:05.572Z,80.00
2023-04-18T12:24:34.287Z,82.00
2023-04-18T12:27:02.097Z,80.90
2023-04-18T12:29:30.731Z,79.80
2023-04-18T12:32:00.825Z,80.30
2023-04-18T12:34:28.280Z,80.00
2023-04-18T12:36:55.700Z,80.80
2023-04-18T12:39:23.270Z,81.00
2023-04-18T12:41:52.063Z,78.80
2023-04-18T12:44:19.332Z,78.80
2023-04-18T12:46:46.822Z,77.70
2023-04-18T12:49:14.486Z,75.20
2023-04-18T12:51:41.822Z,76.70
2023-04-18T12:54:09.322Z,74.90
2023-04-18T12:56:36.980Z,74.40
2023-04-18T12:59:04.630Z,75.60
2023-04-18T13:01:33.700Z,73.60
2023-04-18T13:04:11.761Z,75.10
2023-04-18T13:06:40.554Z,77.30
2023-04-18T13:09:09.485Z,78.40
2023-04-18T13:11:37.111Z,78.00
2023-04-18T13:14:05.092Z,77.60
2023-04-18T13:16:33.287Z,77.30
2023-04-18T13:19:00.625Z,76.60
2023-04-18T13:21:28.414Z,76.90
2023-04-18T13:23:55.651Z,76.60
2023-04-18T13:26:23.687Z,76.00
2023-04-18T13:28:52.222Z,76.20
2023-04-18T13:31:19.694Z,74.90
2023-04-18T13:33:47.211Z,75.90
2023-04-18T13:36:14.834Z,76.00
2023-04-18T13:38:42.865Z,75.80
2023-04-18T13:41:13.280Z,76.00
2023-04-18T13:43:41.276Z,76.40
2023-04-18T13:46:09.102Z,75.70
2023-04-18T13:48:36.812Z,75.90
2023-04-18T13:51:04.247Z,74.90
2023-04-18T13:53:33.371Z,75.50
2023-04-18T13:56:01.800Z,76.00
2023-04-18T13:58:30.446Z,74.80
2023-04-18T14:00:58.059Z,75.50
2023-04-18T14:03:25.594Z,76.50
2023-04-18T14:05:54.061Z,76.10
2023-04-18T14:08:21.729Z,75.60
2023-04-18T14:10:49.135Z,76.60
2023-04-18T14:13:17.023Z,76.20
2023-04-18T14:15:47.587Z,75.90
2023-04-18T14:18:18.002Z,74.70
2023-04-18T14:20:45.323Z,72.40
2023-04-18T14:23:13.230Z,72.80
2023-04-18T14:25:40.888Z,74.30
2023-04-18T14:28:11.315Z,70.40
2023-04-18T14:30:43.882Z,72.30
2023-04-18T14:33:12.820Z,71.50
2023-04-18T14:35:40.198Z,70.80
2023-04-18T14:38:08.266Z,71.40
2023-04-18T14:40:36.132Z,72.80
2023-04-18T14:43:04.588Z,73.40
2023-04-18T14:45:38.033Z,70.60
2023-04-18T14:48:08.113Z,71.70
2023-04-18T14:50:38.769Z,70.40
2023-04-18T14:53:06.672Z,71.30
2023-04-18T14:55:34.916Z,73.40
2023-04-18T14:58:02.499Z,75.20
2023-04-18T15:00:35.355Z,77.20
2023-04-18T15:03:04.093Z,78.00
2023-04-18T15:05:32.802Z,78.70
2023-04-18T15:08:01.345Z,79.60
2023-04-18T15:10:28.992Z,80.50
2023-04-18T15:12:56.835Z,80.90
2023-04-18T15:15:29.697Z,81.50
2023-04-18T15:17:57.786Z,81.80
2023-04-18T15:20:25.181Z,83.60
2023-04-18T15:22:52.770Z,82.70
2023-04-18T15:25:20.985Z,83.70
2023-04-18T15:27:48.300Z,83.80
2023-04-18T15:30:15.753Z,84.00
2023-04-18T15:32:44.358Z,84.00
2023-04-18T15:35:13.308Z,84.20
2023-04-18T15:37:40.546Z,84.20
2023-04-18T15:40:09.817Z,84.00
2023-04-18T15:42:37.078Z,85.20
2023-04-18T15:45:06.444Z,85.30
2023-04-18T15:47:34.717Z,87.10
2023-04-18T15:50:04.546Z,88.80
2023-04-18T15:52:33.758Z,89.30
2023-04-18T15:55:01.216Z,89.30
2023-04-18T15:57:30.074Z,89.80
2023-04-18T15:59:58.651Z,90.80
2023-04-18T16:02:26.851Z,89.80
2023-04-18T16:04:54.681Z,89.20
2023-04-18T16:07:22.118Z,89.20
2023-04-18T16:09:49.579Z,90.00
2023-04-18T16:12:16.952Z,90.80
2023-04-18T16:14:44.293Z,90.40
2023-04-18T16:17:12.727Z,91.50
2023-04-18T16:19:41.179Z,91.80
2023-04-18T16:22:08.405Z,91.70
2023-04-18T16:24:36.410Z,91.50
2023-04-18T16:27:04.050Z,90.60
2023-04-18T16:29:32.451Z,89.90
2023-04-18T16:31:59.932Z,91.10
2023-04-18T16:34:27.578Z,91.60
2023-04-18T16:36:55.659Z,91.60
2023-04-18T16:39:23.593Z,91.00
2023-04-18T16:41:51.338Z,90.40
2023-04-18T16:44:18.672Z,89.30
2023-04-18T16:46:46.282Z,89.40
2023-04-18T16:49:14.644Z,90.20
2023-04-18T16:51:42.025Z,89.70
2023-04-18T16:54:09.481Z,90.20
2023-04-18T16:56:37.080Z,90.50
2023-04-18T16:59:05.228Z,90.40
2023-04-18T17:01:34.212Z,90.30
2023-04-18T17:04:02.463Z,90.20
2023-04-18T17:06:31.541Z,89.30
2023-04-18T17:11:39.672Z,88.50
2023-04-18T17:14:08.822Z,89.30
2023-04-18T17:16:40.428Z,90.30
2023-04-18T17:19:08.724Z,90.70
2023-04-18T17:21:36.890Z,91.10
2023-04-18T17:24:06.827Z,91.10
2023-04-18T17:26:37.264Z,91.40
2023-04-18T17:29:04.791Z,91.10
2023-04-18T17:33:54.924Z,90.20
2023-04-18T17:36:23.013Z,89.80
2023-04-18T17:38:50.602Z,89.90
2023-04-18T17:41:20.193Z,89.60
2023-04-18T17:43:47.933Z,90.10
2023-04-18T17:46:15.699Z,89.90
2023-04-18T17:48:43.248Z,89.90
2023-04-18T17:51:11.501Z,90.00
2023-04-18T17:53:38.797Z,90.10
2023-04-18T17:56:06.671Z,90.20
2023-04-18T17:58:33.978Z,90.30
2023-04-18T18:01:02.176Z,91.80
2023-04-18T18:03:30.025Z,91.90
2023-04-18T18:05:57.402Z,91.40
2023-04-18T18:08:25.872Z,92.00
2023-04-18T18:10:53.311Z,92.00
2023-04-18T18:13:20.719Z,91.80
2023-04-18T18:15:50.180Z,92.00
2023-04-18T18:18:29.936Z,91.50
2023-04-18T18:20:58.226Z,92.00
2023-04-18T18:23:25.777Z,92.10
2023-04-18T18:25:53.779Z,91.50
2023-04-18T18:28:21.601Z,90.60
2023-04-18T18:30:52.546Z,89.90
2023-04-18T18:33:20.884Z,90.50
2023-04-18T18:35:48.200Z,90.20
2023-04-18T18:38:15.807Z,90.20
2023-04-18T18:40:43.282Z,90.10
2023-04-18T18:43:11.337Z,90.90
2023-04-18T18:45:42.559Z,91.20
2023-04-18T18:48:11.829Z,90.60
2023-04-18T18:50:39.273Z,91.40
2023-04-18T18:54:00.495Z,90.40
2023-04-18T18:56:27.841Z,90.60
2023-04-18T18:58:55.992Z,90.40
2023-04-18T19:01:23.524Z,90.80
2023-04-18T19:03:51.104Z,91.00
2023-04-18T19:06:18.578Z,90.70
2023-04-18T19:08:45.879Z,90.40
2023-04-18T19:11:13.512Z,90.30
2023-04-18T19:13:40.916Z,90.30
2023-04-18T19:16:08.283Z,90.40
2023-04-18T19:18:36.168Z,90.50
2023-04-18T19:21:04.769Z,90.70
2023-04-18T19:23:32.439Z,90.50
2023-04-18T19:25:59.800Z,90.80
2023-04-18T19:28:27.765Z,91.10
2023-04-18T19:30:55.766Z,92.90
2023-04-18T19:33:27.666Z,93.80
2023-04-18T19:35:55.612Z,94.10
2023-04-18T19:38:22.860Z,94.40
2023-04-18T19:40:51.817Z,94.20
2023-04-18T19:43:20.005Z,93.60
2023-04-18T19:45:47.474Z,93.30
2023-04-18T19:48:15.600Z,93.20
2023-04-18T19:50:43.017Z,92.80
2023-04-18T19:53:11.647Z,92.50
2023-04-18T19:55:39.191Z,92.40
2023-04-18T19:58:06.668Z,92.50
2023-04-18T20:00:36.166Z,92.30
2023-04-18T20:03:03.789Z,92.20
2023-04-18T20:05:31.745Z,92.00
2023-04-18T20:07:59.358Z,92.40
2023-04-18T20:10:26.863Z,92.10
2023-04-18T20:12:54.306Z,91.80
2023-04-18T20:15:26.572Z,91.50
2023-04-18T20:17:55.401Z,91.60
2023-04-18T20:20:22.857Z,91.40
2023-04-18T20:22:50.235Z,91.50
2023-04-18T20:25:17.692Z,91.50
2023-04-18T20:27:45.214Z,92.20
2023-04-18T20:30:13.344Z,92.80
2023-04-18T20:32:41.452Z,92.70
2023-04-18T20:35:09.695Z,92.60
2023-04-18T20:37:37.006Z,92.30
2023-04-18T20:40:07.363Z,93.00
2023-04-18T20:42:35.821Z,92.40
2023-04-18T20:45:11.271Z,92.30
2023-04-18T20:47:42.341Z,92.00
2023-04-18T20:50:10.994Z,91.70
2023-04-18T20:52:38.803Z,91.80
2023-04-18T20:55:06.581Z,92.30
2023-04-18T20:57:33.889Z,92.70
2023-04-18T21:00:01.406Z,92.80
2023-04-18T21:02:28.921Z,92.70
2023-04-18T21:04:56.208Z,93.00
2023-04-18T21:07:23.657Z,92.90
2023-04-18T21:09:51.048Z,92.60
2023-04-18T21:12:19.358Z,92.10
2023-04-18T21:14:48.277Z,92.00
2023-04-18T21:17:17.654Z,91.90
2023-04-18T21:19:48.455Z,92.30
2023-04-18T21:22:16.915Z,92.70
2023-04-18T21:24:44.442Z,92.30
2023-04-18T21:27:12.156Z,92.40
2023-04-18T21:29:40.974Z,92.40
2023-04-18T21:32:08.420Z,92.10
2023-04-18T21:34:35.956Z,91.50
2023-04-18T21:37:03.546Z,91.00
2023-04-18T21:39:31.933Z,92.00
2023-04-18T21:41:59.437Z,92.10
2023-04-18T21:44:26.773Z,92.40
2023-04-18T21:46:54.152Z,93.10
2023-04-18T21:49:22.217Z,93.00
2023-04-18T21:51:49.480Z,93.00
2023-04-18T21:54:16.996Z,92.90
2023-04-18T21:56:44.418Z,92.70
2023-04-18T21:59:11.902Z,93.20
2023-04-18T22:01:39.416Z,93.50
2023-04-18T22:04:07.131Z,93.40
2023-04-18T22:06:35.174Z,92.60
2023-04-18T22:09:02.485Z,91.70
2023-04-18T22:11:29.924Z,91.50
2023-04-18T22:13:58.250Z,92.30
2023-04-18T22:16:26.099Z,90.80
2023-04-18T22:18:54.812Z,90.60
2023-04-18T22:21:22.078Z,92.00
2023-04-18T22:23:49.423Z,92.90
2023-04-18T22:26:16.921Z,92.80
2023-04-18T22:28:45.227Z,92.60
2023-04-18T22:31:12.793Z,92.40
2023-04-18T22:33:40.127Z,92.20
2023-04-18T22:36:07.653Z,91.90
2023-04-18T22:38:35.631Z,91.70
2023-04-18T22:41:02.906Z,91.10
2023-04-18T22:43:31.074Z,90.90
2023-04-18T22:45:58.468Z,90.90
2023-04-18T22:48:26.419Z,90.90
2023-04-18T22:50:54.711Z,90.60
2023-04-18T22:53:22.813Z,91.30
2023-04-18T22:55:50.194Z,90.50
2023-04-18T22:58:17.839Z,91.40
2023-04-18T23:00:48.818Z,91.40
2023-04-18T23:03:16.922Z,91.40
2023-04-18T23:05:44.248Z,91.30
2023-04-18T23:08:12.207Z,90.10
2023-04-18T23:10:39.862Z,90.40
2023-04-18T23:13:10.122Z,91.50
2023-04-18T23:15:41.111Z,92.60
2023-04-18T23:18:09.132Z,92.60
2023-04-18T23:20:37.991Z,92.80
2023-04-18T23:23:05.914Z,92.60
2023-04-18T23:25:34.287Z,92.10
2023-04-18T23:28:02.019Z,91.20
2023-04-18T23:30:32.485Z,90.30
2023-04-18T23:33:01.021Z,90.40
2023-04-18T23:35:28.334Z,90.80
2023-04-18T23:37:57.320Z,90.20
2023-04-18T23:40:24.765Z,90.20
2023-04-18T23:42:52.352Z,91.60
2023-04-18T23:45:21.356Z,92.20
2023-04-18T23:47:49.310Z,92.20
2023-04-18T23:50:17.028Z,93.00
2023-04-18T23:52:44.348Z,92.50
2023-04-18T23:55:11.755Z,91.70
2023-04-18T23:57:39.077Z,90.40
